Time;durP1;ratioP1;P1;durP2;ratioP2;P2;SDS_P1;SDS_P2;PMS_P1;PMS_P2;Temp;Humidity;BMP_temperature;BMP_pressure;BME280_temperature;BME280_humidity;BME280_pressure;Samples;Min_cycle;Max_cycle;Signal;HPM_P1;HPM_P2
2021/06/15 00:00:57;;;;;;;8.47;7.77;;;;;;;;;;3576769;40;20771;-72
2021/06/15 00:03:23;;;;;;;7.53;6.93;;;;;;;;;;3586226;40;20689;-72
2021/06/15 00:05:49;;;;;;;9.00;8.00;;;;;;;;;;3581485;40;20759;-72
2021/06/15 00:08:17;;;;;;;8.40;7.53;;;;;;;;;;3587729;40;20744;-73
2021/06/15 00:10:43;;;;;;;10.48;9.57;;;;;;;;;;3587762;40;20378;-73
2021/06/15 00:13:10;;;;;;;12.52;10.98;;;;;;;;;;3591819;40;20356;-73
2021/06/15 00:15:37;;;;;;;10.88;9.88;;;;;;;;;;3590946;40;20779;-73
2021/06/15 00:18:03;;;;;;;10.57;9.73;;;;;;;;;;3587580;40;20386;-72
2021/06/15 00:20:31;;;;;;;11.50;10.40;;;;;;;;;;3577806;40;20771;-72
2021/06/15 00:22:57;;;;;;;11.73;9.00;;;;;;;;;;3588246;40;20373;-73
2021/06/15 00:25:25;;;;;;;11.02;8.10;;;;;;;;;;3592183;40;20375;-73
2021/06/15 00:27:52;;;;;;;9.18;8.18;;;;;;;;;;3594704;40;20393;-73
2021/06/15 00:30:19;;;;;;;10.02;8.60;;;;;;;;;;3587641;40;20369;-80
2021/06/15 00:32:48;;;;;;;10.02;8.35;;;;;;;;;;3588175;40;20426;-73
2021/06/15 00:35:14;;;;;;;10.70;8.40;;;;;;;;;;3589465;40;20751;-73
2021/06/15 00:37:40;;;;;;;9.48;8.50;;;;;;;;;;3587617;40;20392;-73
2021/06/15 00:40:07;;;;;;;9.82;9.00;;;;;;;;;;3594037;39;20791;-74
2021/06/15 00:42:34;;;;;;;9.70;8.43;;;;;;;;;;3591185;40;20382;-72
2021/06/15 00:45:01;;;;;;;10.43;8.43;;;;;;;;;;3590968;40;20377;-73
2021/06/15 00:47:27;;;;;;;10.60;9.07;;;;;;;;;;3577804;40;20428;-73
2021/06/15 00:49:54;;;;;;;10.90;9.27;;;;;;;;;;3592042;40;20371;-74
2021/06/15 00:52:21;;;;;;;11.50;10.35;;;;;;;;;;3593205;40;20368;-73
2021/06/15 00:54:49;;;;;;;12.35;10.27;;;;;;;;;;3587749;40;20358;-73
2021/06/15 00:57:15;;;;;;;11.85;10.38;;;;;;;;;;3594072;40;20420;-72
2021/06/15 00:59:43;;;;;;;11.13;9.98;;;;;;;;;;3587352;40;20378;-73
2021/06/15 01:04:38;;;;;;;10.37;9.30;;;;;;;;;;3585908;39;21263;-74
2021/06/15 01:07:08;;;;;;;9.90;8.45;;;;;;;;;;3581446;40;20621;-74
2021/06/15 01:09:36;;;;;;;10.30;7.83;;;;;;;;;;3570462;40;20413;-74
2021/06/15 01:12:06;;;;;;;8.80;7.78;;;;;;;;;;3571436;40;20423;-75
2021/06/15 01:14:39;;;;;;;8.85;7.95;;;;;;;;;;3580680;40;20349;-73
2021/06/15 01:17:10;;;;;;;9.63;8.65;;;;;;;;;;3570577;40;20380;-75
2021/06/15 01:19:41;;;;;;;11.32;7.60;;;;;;;;;;3561601;40;20786;-76
2021/06/15 01:22:14;;;;;;;8.60;7.60;;;;;;;;;;3570723;40;20345;-74
2021/06/15 01:24:45;;;;;;;8.93;6.95;;;;;;;;;;3561669;40;20845;-75
2021/06/15 01:27:26;;;;;;;11.23;6.18;;;;;;;;;;3580782;40;20352;-73
2021/06/15 01:29:56;;;;;;;11.13;6.32;;;;;;;;;;3572169;40;20405;-74
2021/06/15 01:32:24;;;;;;;8.35;6.30;;;;;;;;;;3562838;40;20416;-76
2021/06/15 01:34:51;;;;;;;7.13;5.93;;;;;;;;;;3571921;40;20429;-75
2021/06/15 01:37:19;;;;;;;8.02;6.15;;;;;;;;;;3561430;40;20407;-75
2021/06/15 01:39:48;;;;;;;7.77;5.73;;;;;;;;;;3572321;40;20417;-74
2021/06/15 01:42:19;;;;;;;8.85;5.22;;;;;;;;;;3571180;40;20350;-74
2021/06/15 01:44:47;;;;;;;10.77;5.68;;;;;;;;;;3571373;40;20350;-72
2021/06/15 01:47:15;;;;;;;8.82;6.05;;;;;;;;;;3561028;40;20401;-74
2021/06/15 01:49:45;;;;;;;8.55;6.45;;;;;;;;;;3570074;40;20365;-74
2021/06/15 01:52:12;;;;;;;13.55;7.45;;;;;;;;;;3571009;40;20701;-75
2021/06/15 01:54:39;;;;;;;8.63;6.40;;;;;;;;;;3571058;40;20347;-75
2021/06/15 01:57:06;;;;;;;9.45;7.43;;;;;;;;;;3570975;40;20372;-74
2021/06/15 01:59:32;;;;;;;9.10;8.17;;;;;;;;;;3570851;40;20373;-74
2021/06/15 02:01:59;;;;;;;8.85;7.38;;;;;;;;;;3559282;40;20411;-73
2021/06/15 02:04:29;;;;;;;9.02;7.72;;;;;;;;;;3560958;40;20376;-74
2021/06/15 02:06:56;;;;;;;10.00;8.38;;;;;;;;;;3569106;40;20411;-74
2021/06/15 02:09:23;;;;;;;8.57;7.53;;;;;;;;;;3570427;40;20747;-73
2021/06/15 02:11:49;;;;;;;9.70;6.70;;;;;;;;;;3571158;40;20342;-75
2021/06/15 02:14:20;;;;;;;8.23;6.03;;;;;;;;;;3571801;40;20798;-75
2021/06/15 02:16:47;;;;;;;10.55;6.25;;;;;;;;;;3580031;40;20657;-75
2021/06/15 02:19:14;;;;;;;4.90;4.40;;;;;;;;;;3572117;40;20357;-74
2021/06/15 02:21:44;;;;;;;9.43;6.65;;;;;;;;;;3571826;40;20408;-75
2021/06/15 02:24:11;;;;;;;7.25;5.07;;;;;;;;;;3571669;40;20377;-74
2021/06/15 02:26:37;;;;;;;7.50;4.57;;;;;;;;;;3571972;40;20346;-75
2021/06/15 02:29:03;;;;;;;5.72;4.07;;;;;;;;;;3571241;40;20358;-74
2021/06/15 02:31:31;;;;;;;11.70;5.97;;;;;;;;;;3569260;40;20413;-73
2021/06/15 02:34:01;;;;;;;9.13;5.50;;;;;;;;;;3570033;40;20696;-74
2021/06/15 02:36:29;;;;;;;7.75;5.15;;;;;;;;;;3569228;40;20431;-74
2021/06/15 02:38:58;;;;;;;6.27;4.90;;;;;;;;;;3568656;40;20402;-73
2021/06/15 02:41:25;;;;;;;9.63;4.45;;;;;;;;;;3568307;40;20771;-73
2021/06/15 02:43:56;;;;;;;7.33;4.90;;;;;;;;;;3569621;40;20361;-74
2021/06/15 02:46:25;;;;;;;7.70;4.50;;;;;;;;;;3569359;40;20350;-74
2021/06/15 02:48:53;;;;;;;6.47;4.20;;;;;;;;;;3568537;40;20406;-73
2021/06/15 02:51:20;;;;;;;6.20;3.93;;;;;;;;;;3570465;40;20362;-75
2021/06/15 02:53:51;;;;;;;5.78;3.90;;;;;;;;;;3572522;40;20386;-75
2021/06/15 02:56:20;;;;;;;7.68;3.53;;;;;;;;;;3571253;40;20682;-74
2021/06/15 02:58:47;;;;;;;7.07;3.72;;;;;;;;;;3570825;40;20385;-75
2021/06/15 03:01:13;;;;;;;5.35;3.78;;;;;;;;;;3572400;40;20392;-75
2021/06/15 03:03:39;;;;;;;5.22;3.75;;;;;;;;;;3570273;40;20412;-74
2021/06/15 03:06:06;;;;;;;5.55;3.17;;;;;;;;;;3580724;40;20376;-74
2021/06/15 03:08:33;;;;;;;5.05;3.45;;;;;;;;;;3579150;40;20694;-74
2021/06/15 03:10:59;;;;;;;5.78;3.30;;;;;;;;;;3586085;40;20408;-75
2021/06/15 03:13:29;;;;;;;5.57;3.35;;;;;;;;;;3600867;40;20384;-75
2021/06/15 03:15:58;;;;;;;5.22;3.30;;;;;;;;;;3580322;40;20360;-75
2021/06/15 03:18:26;;;;;;;5.63;3.40;;;;;;;;;;3592909;40;20438;-73
2021/06/15 03:20:55;;;;;;;4.72;3.17;;;;;;;;;;3600845;40;20360;-74
2021/06/15 03:23:29;;;;;;;5.07;3.40;;;;;;;;;;3590802;40;20440;-74
2021/06/15 03:25:59;;;;;;;5.80;3.45;;;;;;;;;;3600386;40;20445;-75
2021/06/15 03:28:27;;;;;;;4.07;3.30;;;;;;;;;;3600734;40;20356;-74
2021/06/15 03:30:54;;;;;;;6.45;3.90;;;;;;;;;;3600848;40;20393;-75
2021/06/15 03:33:22;;;;;;;3.72;3.03;;;;;;;;;;3601443;40;20355;-74
2021/06/15 03:35:50;;;;;;;3.80;2.83;;;;;;;;;;3581137;40;20400;-75
2021/06/15 03:38:16;;;;;;;4.20;3.80;;;;;;;;;;3587197;40;20347;-75
2021/06/15 03:40:44;;;;;;;4.40;3.10;;;;;;;;;;3592894;40;20864;-75
2021/06/15 03:43:12;;;;;;;7.13;3.13;;;;;;;;;;3596910;40;20380;-74
2021/06/15 03:45:41;;;;;;;5.80;3.15;;;;;;;;;;3604624;40;20337;-74
2021/06/15 03:48:08;;;;;;;4.38;3.20;;;;;;;;;;3595430;40;20428;-75
2021/06/15 03:50:36;;;;;;;5.00;3.20;;;;;;;;;;3594648;40;20706;-75
2021/06/15 03:53:02;;;;;;;4.57;3.20;;;;;;;;;;3584064;40;20809;-73
2021/06/15 03:55:30;;;;;;;3.95;2.90;;;;;;;;;;3583693;40;20772;-75
2021/06/15 03:57:57;;;;;;;4.40;2.80;;;;;;;;;;3592185;40;20350;-74
2021/06/15 04:00:24;;;;;;;4.53;3.60;;;;;;;;;;3587205;40;20365;-74
2021/06/15 04:02:54;;;;;;;5.55;2.72;;;;;;;;;;3580793;40;20452;-75
2021/06/15 04:05:22;;;;;;;4.87;2.90;;;;;;;;;;3591282;40;20347;-75
2021/06/15 04:07:48;;;;;;;3.10;2.50;;;;;;;;;;3594228;40;20628;-75
2021/06/15 04:10:16;;;;;;;4.53;3.08;;;;;;;;;;3578219;40;20780;-75
2021/06/15 04:12:43;;;;;;;5.80;3.20;;;;;;;;;;3571250;40;20480;-76
2021/06/15 04:15:10;;;;;;;4.32;2.75;;;;;;;;;;3572834;40;20357;-75
2021/06/15 04:17:38;;;;;;;4.15;2.63;;;;;;;;;;3572257;40;20342;-75
2021/06/15 04:20:07;;;;;;;4.43;2.80;;;;;;;;;;3572020;40;20787;-75
2021/06/15 04:22:34;;;;;;;4.07;2.45;;;;;;;;;;3571947;40;20798;-75
2021/06/15 04:25:05;;;;;;;2.60;2.30;;;;;;;;;;3571490;40;20479;-74
2021/06/15 04:27:31;;;;;;;3.93;2.40;;;;;;;;;;3571750;40;20374;-75
2021/06/15 04:29:58;;;;;;;4.00;2.53;;;;;;;;;;3571753;40;20362;-75
2021/06/15 04:32:30;;;;;;;3.45;2.78;;;;;;;;;;3569855;40;20357;-74
2021/06/15 04:34:59;;;;;;;3.88;2.58;;;;;;;;;;3573363;40;20346;-74
2021/06/15 04:37:30;;;;;;;3.83;2.60;;;;;;;;;;3569586;40;20397;-74
2021/06/15 04:39:58;;;;;;;3.20;2.42;;;;;;;;;;3568102;40;20406;-74
2021/06/15 04:42:26;;;;;;;3.03;2.40;;;;;;;;;;3567001;40;20386;-74
2021/06/15 04:44:53;;;;;;;2.20;1.97;;;;;;;;;;3549835;40;20414;-76
2021/06/15 04:47:22;;;;;;;2.35;2.00;;;;;;;;;;3564390;40;20363;-77
2021/06/15 04:49:54;;;;;;;2.75;2.55;;;;;;;;;;3565539;40;20360;-76
2021/06/15 04:52:21;;;;;;;3.20;2.13;;;;;;;;;;3567222;40;20391;-76
2021/06/15 04:54:50;;;;;;;3.70;2.10;;;;;;;;;;3563771;40;20450;-76
2021/06/15 04:57:18;;;;;;;3.40;2.47;;;;;;;;;;3562640;40;20375;-76
2021/06/15 04:59:46;;;;;;;3.22;2.90;;;;;;;;;;3564002;40;20348;-77
2021/06/15 05:02:13;;;;;;;4.40;3.00;;;;;;;;;;3567010;40;20458;-77
2021/06/15 05:04:39;;;;;;;4.22;2.40;;;;;;;;;;3548482;40;20395;-77
2021/06/15 05:07:05;;;;;;;3.60;2.40;;;;;;;;;;3548956;40;20406;-77
2021/06/15 05:09:33;;;;;;;5.15;2.60;;;;;;;;;;3545867;40;20826;-76
2021/06/15 05:12:01;;;;;;;4.93;2.97;;;;;;;;;;3553677;40;20424;-75
2021/06/15 05:14:28;;;;;;;4.00;2.80;;;;;;;;;;3566810;40;20355;-77
2021/06/15 05:16:55;;;;;;;3.63;2.33;;;;;;;;;;3566048;40;20434;-76
2021/06/15 05:19:21;;;;;;;4.45;2.42;;;;;;;;;;3566058;40;20477;-76
2021/06/15 05:21:52;;;;;;;3.22;2.70;;;;;;;;;;3566769;40;20352;-77
2021/06/15 05:24:26;;;;;;;3.47;2.67;;;;;;;;;;3559975;40;20466;-76
2021/06/15 05:26:52;;;;;;;8.45;2.88;;;;;;;;;;3557390;40;20393;-76
2021/06/15 05:29:19;;;;;;;4.05;2.78;;;;;;;;;;3558000;40;20376;-76
2021/06/15 05:31:45;;;;;;;4.70;2.92;;;;;;;;;;3546764;40;20734;-75
2021/06/15 05:34:11;;;;;;;3.67;2.70;;;;;;;;;;3546252;40;20366;-77
2021/06/15 05:36:38;;;;;;;2.40;1.98;;;;;;;;;;3548114;40;20375;-77
2021/06/15 05:39:04;;;;;;;3.17;2.72;;;;;;;;;;3563406;40;20426;-76
2021/06/15 05:43:58;;;;;;;3.10;2.10;;;;;;;;;;3601981;39;20420;-75
2021/06/15 05:46:26;;;;;;;3.15;2.40;;;;;;;;;;3593134;40;20640;-74
2021/06/15 05:48:52;;;;;;;4.38;2.88;;;;;;;;;;3596967;40;20373;-74
2021/06/15 05:51:18;;;;;;;3.40;2.72;;;;;;;;;;3585556;40;20391;-75
2021/06/15 05:53:44;;;;;;;5.85;2.60;;;;;;;;;;3585617;40;20415;-74
2021/06/15 05:56:11;;;;;;;3.10;2.87;;;;;;;;;;3587702;40;20404;-74
2021/06/15 05:58:37;;;;;;;2.60;2.40;;;;;;;;;;3598772;40;20369;-75
2021/06/15 06:01:03;;;;;;;3.28;2.80;;;;;;;;;;3591385;40;20380;-74
2021/06/15 06:03:36;;;;;;;5.35;2.63;;;;;;;;;;3595779;39;20764;-74
2021/06/15 06:08:47;;;;;;;2.38;2.08;;;;;;;;;;3590202;40;20420;-75
2021/06/15 06:11:13;;;;;;;3.67;2.42;;;;;;;;;;3582068;40;20816;-74
2021/06/15 06:13:40;;;;;;;3.30;2.83;;;;;;;;;;3588138;40;20393;-75
2021/06/15 06:16:09;;;;;;;4.07;2.50;;;;;;;;;;3582396;40;20403;-75
2021/06/15 06:18:38;;;;;;;2.83;2.35;;;;;;;;;;3599650;40;20746;-74
2021/06/15 06:21:09;;;;;;;4.25;2.45;;;;;;;;;;3603114;39;20429;-74
2021/06/15 06:23:35;;;;;;;4.22;2.90;;;;;;;;;;3598149;39;20369;-74
2021/06/15 06:26:02;;;;;;;2.78;2.47;;;;;;;;;;3589235;40;20424;-74
2021/06/15 06:28:28;;;;;;;3.25;2.95;;;;;;;;;;3600015;40;20626;-75
2021/06/15 06:30:54;;;;;;;6.77;2.87;;;;;;;;;;3589667;40;20390;-74
2021/06/15 06:33:20;;;;;;;2.87;2.40;;;;;;;;;;3599916;40;20664;-72
2021/06/15 06:35:48;;;;;;;2.75;2.28;;;;;;;;;;3600115;39;20361;-73
2021/06/15 06:38:14;;;;;;;4.32;2.55;;;;;;;;;;3603401;39;20401;-73
2021/06/15 06:40:40;;;;;;;2.92;2.30;;;;;;;;;;3599345;40;20770;-74
2021/06/15 06:43:08;;;;;;;2.40;2.17;;;;;;;;;;3590866;40;20416;-74
2021/06/15 06:45:34;;;;;;;3.73;2.10;;;;;;;;;;3592987;39;20393;-75
2021/06/15 06:48:00;;;;;;;2.23;1.77;;;;;;;;;;3607503;39;20840;-73
2021/06/15 06:50:26;;;;;;;2.83;2.40;;;;;;;;;;3607125;39;20771;-74
2021/06/15 06:52:54;;;;;;;3.28;2.33;;;;;;;;;;3606829;39;20361;-74
2021/06/15 06:55:20;;;;;;;1.67;1.58;;;;;;;;;;3603739;39;20371;-73
2021/06/15 06:57:47;;;;;;;4.40;2.13;;;;;;;;;;3594247;40;20463;-74
2021/06/15 07:00:14;;;;;;;4.10;2.55;;;;;;;;;;3593608;39;20493;-74
2021/06/15 07:02:40;;;;;;;4.20;2.78;;;;;;;;;;3605579;39;20390;-73
2021/06/15 07:05:07;;;;;;;2.63;2.13;;;;;;;;;;3606165;39;20352;-72
2021/06/15 07:07:33;;;;;;;2.97;2.00;;;;;;;;;;3608021;39;20360;-74
2021/06/15 07:10:00;;;;;;;2.40;1.95;;;;;;;;;;3606407;39;20361;-74
2021/06/15 07:12:26;;;;;;;3.72;2.17;;;;;;;;;;3608877;39;20770;-74
2021/06/15 07:14:53;;;;;;;3.80;2.47;;;;;;;;;;3593490;39;20392;-75
2021/06/15 07:17:19;;;;;;;3.28;2.08;;;;;;;;;;3607828;39;20366;-74
2021/06/15 07:19:45;;;;;;;2.83;1.67;;;;;;;;;;3609183;39;20371;-74
2021/06/15 07:22:11;;;;;;;2.53;1.98;;;;;;;;;;3606628;39;20370;-74
2021/06/15 07:24:37;;;;;;;3.15;2.05;;;;;;;;;;3598343;39;20406;-74
2021/06/15 07:27:05;;;;;;;4.55;1.80;;;;;;;;;;3601225;39;20448;-74
2021/06/15 07:29:31;;;;;;;6.25;2.35;;;;;;;;;;3609005;39;20416;-74
2021/06/15 07:31:58;;;;;;;11.48;3.90;;;;;;;;;;3602596;39;20372;-73
2021/06/15 07:34:24;;;;;;;18.05;6.32;;;;;;;;;;3604472;39;20375;-75
2021/06/15 07:36:50;;;;;;;8.10;3.00;;;;;;;;;;3599815;39;20409;-74
2021/06/15 07:39:17;;;;;;;14.35;4.40;;;;;;;;;;3599786;39;20604;-74
2021/06/15 07:41:43;;;;;;;56.85;18.25;;;;;;;;;;3604553;39;20491;-74
2021/06/15 07:44:11;;;;;;;20.98;6.03;;;;;;;;;;3610273;39;20495;-74
2021/06/15 07:46:37;;;;;;;14.50;4.50;;;;;;;;;;3596759;39;20474;-74
2021/06/15 07:49:03;;;;;;;6.77;3.40;;;;;;;;;;3607811;39;20387;-74
2021/06/15 07:51:29;;;;;;;3.70;3.05;;;;;;;;;;3605353;39;20736;-74
2021/06/15 07:53:56;;;;;;;2.25;2.05;;;;;;;;;;3603994;39;20356;-74
2021/06/15 07:56:22;;;;;;;3.05;2.30;;;;;;;;;;3602843;39;20369;-74
2021/06/15 07:58:48;;;;;;;3.28;1.90;;;;;;;;;;3608154;39;20375;-74
2021/06/15 08:01:16;;;;;;;3.47;2.40;;;;;;;;;;3609506;39;20356;-74
2021/06/15 08:03:42;;;;;;;2.38;2.00;;;;;;;;;;3605361;39;20401;-75
2021/06/15 08:06:08;;;;;;;2.73;2.17;;;;;;;;;;3608787;39;20419;-74
2021/06/15 08:08:34;;;;;;;3.42;1.83;;;;;;;;;;3593786;40;20400;-74
2021/06/15 08:11:02;;;;;;;3.08;2.20;;;;;;;;;;3591195;39;20406;-74
2021/06/15 08:13:29;;;;;;;2.63;1.92;;;;;;;;;;3601836;39;20447;-74
2021/06/15 08:15:55;;;;;;;3.80;2.33;;;;;;;;;;3598467;39;20386;-74
2021/06/15 08:18:24;;;;;;;2.97;1.90;;;;;;;;;;3605325;39;20373;-74
2021/06/15 08:20:52;;;;;;;3.60;2.30;;;;;;;;;;3602405;39;20374;-74
2021/06/15 08:23:18;;;;;;;3.23;2.00;;;;;;;;;;3599272;39;20487;-74
2021/06/15 08:25:45;;;;;;;1.90;1.50;;;;;;;;;;3592567;40;20847;-74
2021/06/15 08:28:11;;;;;;;3.03;1.88;;;;;;;;;;3606845;39;20535;-74
2021/06/15 08:30:38;;;;;;;3.00;1.75;;;;;;;;;;3606153;39;20639;-74
2021/06/15 08:33:04;;;;;;;2.40;1.58;;;;;;;;;;3611397;39;20362;-74
2021/06/15 08:35:33;;;;;;;1.92;1.30;;;;;;;;;;3596333;39;20427;-74
2021/06/15 08:37:59;;;;;;;3.30;1.43;;;;;;;;;;3593217;39;20410;-74
2021/06/15 08:40:25;;;;;;;1.63;1.30;;;;;;;;;;3607148;39;20355;-74
2021/06/15 08:42:51;;;;;;;1.57;1.20;;;;;;;;;;3604258;39;20467;-74
2021/06/15 08:45:19;;;;;;;2.03;1.38;;;;;;;;;;3597411;39;20404;-73
2021/06/15 08:47:46;;;;;;;1.85;1.40;;;;;;;;;;3597906;40;20369;-74
2021/06/15 08:50:14;;;;;;;2.55;1.30;;;;;;;;;;3593838;40;20425;-74
2021/06/15 08:52:42;;;;;;;2.07;1.20;;;;;;;;;;3599338;40;20360;-74
2021/06/15 08:55:08;;;;;;;2.25;1.60;;;;;;;;;;3589638;40;20501;-73
2021/06/15 08:57:36;;;;;;;2.38;1.35;;;;;;;;;;3586598;40;20365;-75
2021/06/15 09:00:03;;;;;;;1.85;1.35;;;;;;;;;;3599451;40;20406;-74
2021/06/15 09:02:29;;;;;;;3.03;1.48;;;;;;;;;;3599326;40;20656;-74
2021/06/15 09:04:56;;;;;;;1.70;1.60;;;;;;;;;;3595930;40;20854;-74
2021/06/15 09:07:22;;;;;;;2.25;1.40;;;;;;;;;;3603000;39;20411;-74
2021/06/15 09:09:50;;;;;;;3.78;1.58;;;;;;;;;;3583357;40;20383;-74
2021/06/15 09:12:17;;;;;;;2.78;1.40;;;;;;;;;;3599328;40;20373;-74
2021/06/15 09:14:45;;;;;;;2.80;1.20;;;;;;;;;;3586392;40;20400;-74
2021/06/15 09:17:12;;;;;;;2.03;1.20;;;;;;;;;;3597380;40;20373;-74
2021/06/15 09:19:39;;;;;;;2.00;1.15;;;;;;;;;;3591949;40;20371;-74
2021/06/15 09:22:05;;;;;;;2.78;1.20;;;;;;;;;;3606294;39;20448;-74
2021/06/15 09:24:32;;;;;;;2.00;1.10;;;;;;;;;;3598948;40;20364;-73
2021/06/15 09:27:08;;;;;;;2.65;1.27;;;;;;;;;;3599331;40;20630;-74
2021/06/15 09:29:35;;;;;;;2.73;1.20;;;;;;;;;;3595711;40;20389;-74
2021/06/15 09:32:01;;;;;;;3.47;1.30;;;;;;;;;;3599225;40;20371;-74
2021/06/15 09:34:28;;;;;;;1.75;1.50;;;;;;;;;;3599230;40;20468;-77
2021/06/15 09:36:54;;;;;;;2.65;1.20;;;;;;;;;;3585458;40;20460;-74
2021/06/15 09:39:20;;;;;;;1.50;1.20;;;;;;;;;;3580974;40;20477;-74
2021/06/15 09:41:48;;;;;;;3.30;1.25;;;;;;;;;;3594984;40;20450;-74
2021/06/15 09:44:17;;;;;;;2.45;1.30;;;24.60;98.80;;;;;;3598981;39;20376;-74
2021/06/15 09:46:44;;;;;;;3.20;1.33;;;25.70;80.30;;;;;;3598685;40;20361;-74
2021/06/15 09:49:12;;;;;;;3.30;1.13;;;25.60;80.80;;;;;;3598210;40;20360;-73
2021/06/15 09:51:38;;;;;;;2.65;1.50;;;;;;;;;;3598841;40;20878;-74
2021/06/15 09:54:05;;;;;;;2.00;1.17;;;;;;;;;;3598641;40;20372;-73
2021/06/15 09:56:31;;;;;;;2.63;1.20;;;;;;;;;;3601723;39;20750;-74
2021/06/15 09:59:00;;;;;;;2.20;1.20;;;;;;;;;;3598374;40;20479;-73
2021/06/15 10:01:29;;;;;;;1.50;1.00;;;;;;;;;;3601693;39;20357;-74
2021/06/15 10:04:11;;;;;;;3.33;1.38;;;;;;;;;;3598236;40;20754;-73
2021/06/15 10:06:38;;;;;;;1.70;1.25;;;;;;;;;;3579790;40;20469;-74
2021/06/15 10:09:05;;;;;;;1.88;1.00;;;;;;;;;;3575010;40;20384;-73
2021/06/15 10:11:31;;;;;;;2.17;1.20;;;;;;;;;;3572369;40;20491;-73
2021/06/15 10:13:58;;;;;;;1.67;1.10;;;25.70;81.30;;;;;;3571082;40;20388;-72
2021/06/15 10:16:24;;;;;;;1.83;0.95;;;;;;;;;;3571114;40;20370;-74
2021/06/15 10:18:52;;;;;;;1.90;1.40;;;;;;;;;;3571059;40;20364;-74
2021/06/15 10:21:18;;;;;;;2.75;1.48;;;;;;;;;;3576930;40;20764;-73
2021/06/15 10:23:44;;;;;;;2.43;1.20;;;;;;;;;;3573465;40;20905;-73
2021/06/15 10:26:11;;;;;;;2.38;1.40;;;;;;;;;;3576004;40;20457;-74
2021/06/15 10:28:38;;;;;;;1.20;1.00;;;;;;;;;;3566099;40;20397;-73
2021/06/15 10:31:04;;;;;;;1.85;1.10;;;;;;;;;;3579013;40;20418;-74
2021/06/15 10:33:41;;;;;;;1.63;1.13;;;25.70;76.50;;;;;;3577353;40;20424;-73
2021/06/15 10:36:08;;;;;;;2.38;1.40;;;26.70;78.80;;;;;;3567542;40;20415;-74
2021/06/15 10:38:41;;;;;;;3.20;1.33;;;26.80;75.80;;;;;;3592038;40;20769;-74
2021/06/15 10:41:08;;;;;;;1.90;1.08;;;26.80;74.20;;;;;;3597663;40;20758;-74
2021/06/15 10:43:44;;;;;;;3.08;1.40;;;26.90;74.30;;;;;;3588363;40;20424;-74
2021/06/15 10:46:34;;;;;;;2.33;1.20;;;27.00;72.90;;;;;;3596990;39;20517;-73
2021/06/15 10:49:02;;;;;;;3.47;1.40;;;27.10;74.30;;;;;;3593419;39;20377;-74
2021/06/15 10:51:34;;;;;;;2.50;1.50;;;26.80;73.10;;;;;;3590022;40;20396;-73
2021/06/15 10:54:03;;;;;;;2.53;1.17;;;26.90;74.30;;;;;;3597852;40;20792;-74
2021/06/15 10:56:32;;;;;;;1.70;1.10;;;;;;;;;;3596714;40;20369;-74
2021/06/15 10:59:09;;;;;;;1.98;1.15;;;27.10;75.00;;;;;;3596439;40;20361;-74
2021/06/15 11:01:41;;;;;;;2.47;1.30;;;27.40;74.80;;;;;;3597578;40;20826;-74
2021/06/15 11:04:08;;;;;;;1.77;1.20;;;27.70;75.40;;;;;;3595761;40;20722;-74
2021/06/15 11:06:47;;;;;;;2.15;1.10;;;27.70;72.80;;;;;;3595875;40;20485;-73
2021/06/15 11:09:22;;;;;;;1.55;1.30;;;27.90;71.60;;;;;;3575320;40;20391;-73
2021/06/15 11:12:10;;;;;;;3.08;1.10;;;27.70;71.50;;;;;;3571818;40;20859;-74
2021/06/15 11:14:37;;;;;;;3.35;1.33;;;27.80;74.00;;;;;;3569981;40;20394;-73
2021/06/15 11:17:07;;;;;;;1.53;1.10;;;27.80;73.70;;;;;;3569628;40;20419;-74
2021/06/15 11:19:36;;;;;;;1.77;0.85;;;;;;;;;;3574485;40;20392;-73
2021/06/15 11:22:09;;;;;;;1.45;1.13;;;;;;;;;;3572691;40;20364;-73
2021/06/15 11:24:50;;;;;;;2.20;0.98;;;;;;;;;;3572786;40;20744;-74
2021/06/15 11:27:19;;;;;;;2.00;1.30;;;;;;;;;;3563518;40;20456;-73
2021/06/15 11:29:46;;;;;;;2.20;0.90;;;;;;;;;;3573563;40;20726;-73
2021/06/15 11:32:23;;;;;;;2.28;1.17;;;;;;;;;;3569834;40;20490;-73
2021/06/15 11:35:07;;;;;;;1.67;0.98;;;;;;;;;;3574575;40;20384;-74
2021/06/15 11:37:42;;;;;;;1.38;1.27;;;;;;;;;;3569255;40;20369;-73
2021/06/15 11:40:16;;;;;;;3.00;1.10;;;;;;;;;;3574824;40;20420;-74
2021/06/15 11:42:43;;;;;;;1.90;1.13;;;28.20;73.00;;;;;;3595797;40;20390;-74
2021/06/15 11:45:12;;;;;;;2.30;1.38;;;28.90;69.00;;;;;;3594039;39;20411;-74
2021/06/15 11:47:41;;;;;;;2.15;1.50;;;29.20;68.30;;;;;;3604364;39;20359;-73
2021/06/15 11:50:12;;;;;;;2.80;1.10;;;;;;;;;;3597898;39;20384;-73
2021/06/15 11:52:41;;;;;;;1.90;1.30;;;;;;;;;;3599908;39;20361;-73
2021/06/15 11:55:10;;;;;;;3.35;1.30;;;29.40;67.60;;;;;;3601918;39;20371;-75
2021/06/15 11:57:36;;;;;;;2.67;1.48;;;29.70;73.60;;;;;;3597405;39;20373;-73
2021/06/15 12:00:03;;;;;;;3.03;1.10;;;;;;;;;;3586575;39;20404;-73
2021/06/15 12:02:29;;;;;;;1.75;1.30;;;;;;;;;;3601677;39;20394;-75
2021/06/15 12:05:11;;;;;;;1.77;1.23;;;;;;;;;;3601705;39;20392;-74
2021/06/15 12:07:38;;;;;;;2.07;1.27;;;;;;;;;;3588308;40;20481;-75
2021/06/15 12:10:10;;;;;;;2.03;1.30;;;;;;;;;;3586098;40;20712;-74
2021/06/15 12:12:51;;;;;;;2.08;1.25;;;;;;;;;;3603197;39;20374;-75
2021/06/15 12:15:23;;;;;;;2.67;1.50;;;;;;;;;;3591341;39;20400;-74
2021/06/15 12:17:49;;;;;;;1.88;1.48;;;;;;;;;;3592578;40;20449;-75
2021/06/15 12:20:22;;;;;;;2.30;1.50;;;;;;;;;;3587020;40;20378;-75
2021/06/15 12:22:49;;;;;;;2.20;1.55;;;;;;;;;;3584845;40;20393;-75
2021/06/15 12:25:18;;;;;;;1.88;1.70;;;;;;;;;;3584084;40;20441;-75
2021/06/15 12:27:44;;;;;;;2.30;1.23;;;;;;;;;;3585718;40;20412;-74
2021/06/15 12:30:12;;;;;;;3.20;1.33;;;;;;;;;;3587944;40;20402;-73
2021/06/15 12:32:45;;;;;;;4.00;1.55;;;;;;;;;;3580538;40;20401;-74
2021/06/15 12:35:15;;;;;;;9.65;1.48;;;;;;;;;;3576553;40;20360;-73
2021/06/15 12:37:41;;;;;;;3.92;1.30;;;;;;;;;;3591017;40;20387;-74
2021/06/15 12:40:08;;;;;;;3.40;1.30;;;;;;;;;;3581835;40;20495;-74
2021/06/15 12:42:36;;;;;;;1.87;1.57;;;;;;;;;;3585595;40;20418;-75
2021/06/15 12:45:02;;;;;;;2.20;1.35;;;;;;;;;;3582350;40;20412;-74
2021/06/15 12:47:29;;;;;;;2.70;1.10;;;;;;;;;;3593943;40;20440;-74
2021/06/15 12:49:56;;;;;;;3.65;1.40;;;;;;;;;;3597482;40;20408;-72
2021/06/15 12:52:31;;;;;;;2.90;1.50;;;;;;;;;;3598240;40;20772;-72
2021/06/15 12:55:08;;;;;;;2.70;1.50;;;;;;;;;;3598056;40;20369;-72
2021/06/15 12:57:36;;;;;;;1.83;1.33;;;;;;;;;;3598137;40;20368;-72
2021/06/15 13:00:05;;;;;;;2.00;1.50;;;;;;;;;;3597881;40;20364;-73
2021/06/15 13:02:32;;;;;;;3.67;1.83;;;;;;;;;;3598156;40;20384;-74
2021/06/15 13:04:59;;;;;;;3.22;1.63;;;29.60;67.70;;;;;;3597674;40;20416;-72
2021/06/15 13:07:29;;;;;;;2.60;1.65;;;30.30;65.50;;;;;;3598174;40;20383;-72
2021/06/15 13:09:56;;;;;;;6.75;1.83;;;30.40;67.20;;;;;;3597867;40;20373;-75
2021/06/15 13:12:24;;;;;;;2.50;1.88;;;30.40;67.70;;;;;;3594504;40;20369;-74
2021/06/15 13:14:56;;;;;;;1.80;1.55;;;;;;;;;;3598025;40;20482;-74
2021/06/15 13:17:23;;;;;;;4.30;2.13;;;;;;;;;;3588707;40;20384;-74
2021/06/15 13:19:51;;;;;;;2.88;1.58;;;;;;;;;;3601501;39;20451;-74
2021/06/15 13:22:19;;;;;;;2.43;1.90;;;;;;;;;;3594345;40;20456;-74
2021/06/15 13:24:46;;;;;;;3.35;1.73;;;;;;;;;;3597983;40;20381;-75
2021/06/15 13:27:19;;;;;;;2.78;1.80;;;;;;;;;;3598005;40;20472;-74
2021/06/15 13:29:45;;;;;;;2.75;1.58;;;;;;;;;;3588342;40;20497;-74
2021/06/15 13:32:18;;;;;;;4.20;2.10;;;30.20;65.80;;;;;;3601116;39;20363;-74
2021/06/15 13:34:57;;;;;;;3.67;2.25;;;30.20;67.90;;;;;;3600926;39;20372;-74
2021/06/15 13:37:25;;;;;;;2.53;2.25;;;30.00;70.30;;;;;;3594138;40;20370;-74
2021/06/15 13:39:51;;;;;;;5.47;2.65;;;29.50;68.00;;;;;;3597637;40;20369;-74
2021/06/15 13:42:22;;;;;;;2.70;2.50;;;29.40;69.60;;;;;;3588259;40;20453;-74
2021/06/15 13:44:59;;;;;;;2.80;2.20;;;;;;;;;;3590862;40;20380;-75
2021/06/15 13:47:27;;;;;;;2.85;2.03;;;29.10;67.40;;;;;;3593669;39;20489;-74
2021/06/15 13:49:53;;;;;;;5.50;3.00;;;29.40;72.30;;;;;;3599267;39;20375;-74
2021/06/15 13:52:19;;;;;;;3.90;2.20;;;29.50;67.80;;;;;;3598347;39;20398;-74
2021/06/15 13:54:45;;;;;;;4.10;2.50;;;29.70;69.20;;;;;;3608028;39;20367;-74
2021/06/15 13:57:10;;;;;;;3.10;1.88;;;29.70;68.60;;;;;;3610436;39;20488;-75
2021/06/15 13:59:36;;;;;;;3.85;2.55;;;30.00;69.70;;;;;;3606248;39;20805;-74
2021/06/15 14:02:03;;;;;;;4.13;2.63;;;30.60;71.10;;;;;;3607742;39;20382;-74
2021/06/15 14:04:30;;;;;;;3.90;2.60;;;31.10;69.00;;;;;;3607111;39;20510;-75
2021/06/15 14:06:56;;;;;;;3.60;2.60;;;31.00;70.30;;;;;;3604978;39;20403;-74
2021/06/15 14:09:22;;;;;;;3.75;2.45;;;31.00;71.10;;;;;;3605714;39;20763;-74
2021/06/15 14:11:48;;;;;;;3.55;2.50;;;31.20;67.40;;;;;;3607565;39;20371;-74
2021/06/15 14:14:14;;;;;;;3.37;2.20;;;31.20;68.20;;;;;;3607311;39;20378;-74
2021/06/15 14:16:40;;;;;;;3.88;2.40;;;31.00;67.60;;;;;;3598319;39;20410;-74
2021/06/15 14:19:06;;;;;;;4.30;2.85;;;31.10;68.70;;;;;;3610231;39;20381;-74
2021/06/15 14:21:42;;;;;;;4.10;2.57;;;31.30;68.20;;;;;;3604672;39;20403;-74
2021/06/15 14:24:09;;;;;;;3.90;2.90;;;31.40;66.70;;;;;;3600779;39;20700;-75
2021/06/15 14:26:36;;;;;;;4.50;3.50;;;;;;;;;;3604616;39;20632;-72
2021/06/15 14:29:02;;;;;;;3.42;2.58;;;31.70;67.10;;;;;;3602456;39;20363;-73
2021/06/15 14:31:28;;;;;;;5.95;3.40;;;31.10;67.60;;;;;;3598186;39;20575;-75
2021/06/15 14:33:54;;;;;;;5.00;3.07;;;31.20;69.20;;;;;;3604171;39;20543;-72